Time;durP1;ratioP1;P1;durP2;ratioP2;P2;SDS_P1;SDS_P2;PMS_P1;PMS_P2;Temp;Humidity;BMP_temperature;BMP_pressure;BME280_temperature;BME280_humidity;BME280_pressure;Samples;Min_cycle;Max_cycle;Signal;HPM_P1;HPM_P2
2023/11/13 00:01:00;;;;;;;;;17.20;16.20;;;;;11.12;100.00;98268.13;6112699;28;98630;-67
2023/11/13 00:04:03;;;;;;;;;16.00;15.50;;;;;11.15;100.00;98270.34;6130897;28;97063;-67
2023/11/13 00:07:07;;;;;;;;;16.80;16.00;;;;;11.18;100.00;98276.09;6117079;28;96339;-67
2023/11/13 00:10:11;;;;;;;;;18.00;15.60;;;;;11.20;100.00;98270.44;6133670;28;96322;-67
2023/11/13 00:13:14;;;;;;;;;17.00;15.00;;;;;11.22;100.00;98271.84;6131391;28;96929;-67
2023/11/13 00:16:19;;;;;;;;;15.75;14.75;;;;;11.25;100.00;98276.75;6116485;28;96868;-67
2023/11/13 00:19:23;;;;;;;;;16.00;16.00;;;;;11.29;100.00;98280.59;6136443;28;96303;-67
2023/11/13 00:22:26;;;;;;;;;15.50;12.50;;;;;11.29;100.00;98271.69;6111760;28;98544;-67
2023/11/13 00:25:29;;;;;;;;;13.00;13.00;;;;;11.34;100.00;98279.88;6134949;28;96385;-67
2023/11/13 00:28:33;;;;;;;;;15.20;14.80;;;;;11.36;100.00;98272.38;6112733;28;96828;-67
2023/11/13 00:31:39;;;;;;;;;15.00;14.50;;;;;11.38;100.00;98285.63;6161277;28;96507;-67
2023/11/13 00:34:42;;;;;;;;;14.00;14.00;;;;;11.44;100.00;98290.88;6135108;28;96428;-67
2023/11/13 00:37:46;;;;;;;;;13.00;12.00;;;;;11.49;100.00;98282.03;6139852;28;96362;-68
2023/11/13 00:40:49;;;;;;;;;12.00;11.25;;;;;11.50;100.00;98287.22;6133952;28;97600;-67
2023/11/13 00:43:52;;;;;;;;;13.25;13.25;;;;;11.55;100.00;98283.78;6115270;28;96193;-67
2023/11/13 00:46:57;;;;;;;;;14.20;13.80;;;;;11.52;100.00;98286.97;6124771;28;96875;-68
2023/11/13 00:50:00;;;;;;;;;12.40;11.40;;;;;11.53;100.00;98284.00;6134121;28;96829;-71
2023/11/13 00:53:04;;;;;;;;;13.50;13.00;;;;;11.57;100.00;98298.69;6136068;28;96512;-71
2023/11/13 00:56:08;;;;;;;;;13.25;12.00;;;;;11.60;100.00;98300.06;6139090;28;96576;-71
2023/11/13 00:59:11;;;;;;;;;14.50;14.00;;;;;11.58;100.00;98302.22;6122676;28;96385;-72
2023/11/13 01:02:17;;;;;;;;;13.00;12.00;;;;;11.57;100.00;98304.09;6101408;28;100055;-70
2023/11/13 01:05:20;;;;;;;;;12.60;12.00;;;;;11.62;100.00;98309.59;6103406;28;97151;-71
2023/11/13 01:08:24;;;;;;;;;11.80;11.80;;;;;11.63;100.00;98310.41;6118614;28;96493;-70
2023/11/13 01:11:27;;;;;;;;;14.40;13.00;;;;;11.59;100.00;98309.22;6132770;28;96618;-71
2023/11/13 01:14:32;;;;;;;;;12.00;11.50;;;;;11.58;100.00;98310.31;6135527;28;96579;-71
2023/11/13 01:17:37;;;;;;;;;11.00;10.20;;;;;11.59;100.00;98311.91;6104875;28;98567;-71
2023/11/13 01:20:40;;;;;;;;;9.80;8.80;;;;;11.63;100.00;98313.91;6137077;28;96660;-72
2023/11/13 01:23:44;;;;;;;;;11.00;9.00;;;;;11.64;100.00;98314.72;6152949;28;96548;-71
2023/11/13 01:26:49;;;;;;;;;11.00;10.60;;;;;11.65;100.00;98317.19;6138482;28;97206;-72
2023/11/13 01:29:52;;;;;;;;;11.00;10.60;;;;;11.66;100.00;98313.44;6136019;28;96901;-72
2023/11/13 01:32:57;;;;;;;;;10.00;10.00;;;;;11.65;100.00;98316.38;6149255;28;96164;-71
2023/11/13 01:36:00;;;;;;;;;9.20;9.20;;;;;11.65;100.00;98325.28;6137053;28;97233;-71
2023/11/13 01:39:05;;;;;;;;;12.00;11.00;;;;;11.66;100.00;98323.41;6137981;28;96576;-71
2023/11/13 01:42:08;;;;;;;;;10.60;10.60;;;;;11.67;100.00;98315.06;6132567;28;96653;-71
2023/11/13 01:45:11;;;;;;;;;10.00;10.00;;;;;11.60;100.00;98309.00;6118564;28;96500;-71
2023/11/13 01:48:16;;;;;;;;;10.80;9.00;;;;;11.63;100.00;98313.91;6149207;28;96350;-71
2023/11/13 01:51:20;;;;;;;;;10.75;9.75;;;;;11.64;100.00;98312.00;6163542;28;96459;-71
2023/11/13 01:54:24;;;;;;;;;10.00;9.80;;;;;11.61;100.00;98307.13;6145740;28;96587;-72
2023/11/13 01:57:28;;;;;;;;;7.00;7.00;;;;;11.60;100.00;98306.28;6145224;28;98357;-71
2023/11/13 02:00:32;;;;;;;;;11.20;10.20;;;;;11.57;100.00;98322.97;6146585;28;96496;-67
2023/11/13 02:03:41;;;;;;;;;9.40;9.40;;;;;11.54;100.00;98307.25;6212445;22;97499;-71
2023/11/13 02:06:45;;;;;;;;;7.00;7.00;;;;;11.53;100.00;98307.50;6183841;28;97485;-71
2023/11/13 02:09:49;;;;;;;;;8.40;7.00;;;;;11.49;100.00;98300.94;6211839;28;96227;-71
2023/11/13 02:12:54;;;;;;;;;8.50;8.50;;;;;11.42;100.00;98309.19;6195122;28;96333;-71
2023/11/13 02:15:57;;;;;;;;;9.40;9.00;;;;;11.43;100.00;98304.63;6193522;28;98588;-70
2023/11/13 02:19:02;;;;;;;;;9.00;9.00;;;;;11.45;100.00;98308.72;6155383;28;98469;-70
2023/11/13 02:22:05;;;;;;;;;9.00;8.00;;;;;11.45;100.00;98306.00;6170217;28;97739;-71
2023/11/13 02:25:14;;;;;;;;;9.50;9.00;;;;;11.46;100.00;98304.13;6186933;28;96418;-71
2023/11/13 02:28:17;;;;;;;;;7.60;7.00;;;;;11.40;100.00;98280.78;6195782;28;96439;-70
2023/11/13 02:31:20;;;;;;;;;6.00;6.00;;;;;11.55;100.00;98299.97;6179024;28;96711;-71
2023/11/13 02:34:24;;;;;;;;;8.00;8.00;;;;;11.53;100.00;98294.03;6212651;28;96271;-71
2023/11/13 02:37:29;;;;;;;;;7.40;7.00;;;;;11.60;100.00;98303.59;6194095;28;96472;-70
2023/11/13 02:40:34;;;;;;;;;7.80;6.80;;;;;11.63;100.00;98302.31;6194772;28;96736;-71
2023/11/13 02:43:38;;;;;;;;;6.00;6.00;;;;;11.65;100.00;98310.97;6194999;28;96906;-71
2023/11/13 02:46:42;;;;;;;;;5.75;5.75;;;;;11.64;100.00;98307.44;6212713;28;96317;-71
2023/11/13 02:49:45;;;;;;;;;7.00;7.00;;;;;11.69;100.00;98310.22;6177727;28;96643;-70
2023/11/13 02:52:49;;;;;;;;;5.00;5.00;;;;;11.73;100.00;98310.59;6193604;28;98531;-71
2023/11/13 02:55:53;;;;;;;;;7.60;6.60;;;;;11.73;100.00;98312.50;6211751;28;97091;-72
2023/11/13 02:58:57;;;;;;;;;8.00;7.00;;;;;11.64;100.00;98315.53;6209217;28;96693;-70
2023/11/13 03:02:00;;;;;;;;;5.60;4.00;;;;;11.60;100.00;98322.50;6196200;28;97477;-70
2023/11/13 03:05:05;;;;;;;;;7.00;6.00;;;;;11.64;100.00;98322.81;6214204;28;96612;-71
2023/11/13 03:08:08;;;;;;;;;9.00;8.00;;;;;11.66;100.00;98321.53;6213708;28;96952;-70
2023/11/13 03:11:14;;;;;;;;;6.60;5.60;;;;;11.65;100.00;98321.75;6225753;28;96268;-68
2023/11/13 03:14:18;;;;;;;;;6.80;6.80;;;;;11.60;100.00;98316.28;6212993;28;96305;-68
2023/11/13 03:17:22;;;;;;;;;9.60;9.60;;;;;11.56;100.00;98323.22;6213429;28;96827;-68
2023/11/13 03:20:26;;;;;;;;;8.00;7.00;;;;;11.52;100.00;98317.50;6232266;28;96728;-68
2023/11/13 03:23:29;;;;;;;;;6.00;6.00;;;;;11.59;100.00;98318.16;6223131;28;96365;-69
2023/11/13 03:26:34;;;;;;;;;7.00;6.25;;;;;11.63;100.00;98322.00;6213927;28;98380;-69
2023/11/13 03:29:38;;;;;;;;;7.00;6.00;;;;;11.62;100.00;98314.16;6232026;28;96260;-70
2023/11/13 03:32:43;;;;;;;;;7.00;7.00;;;;;11.61;100.00;98318.72;6216834;28;97133;-68
2023/11/13 03:35:47;;;;;;;;;5.67;5.67;;;;;11.60;100.00;98318.97;6194335;28;98579;-69
2023/11/13 03:38:51;;;;;;;;;6.00;6.00;;;;;11.59;100.00;98322.72;6230379;28;96648;-69
2023/11/13 03:41:55;;;;;;;;;6.00;6.00;;;;;11.62;100.00;98325.78;6229643;28;96333;-69
2023/11/13 03:44:59;;;;;;;;;8.50;8.00;;;;;11.63;100.00;98319.28;6228270;28;96456;-68
2023/11/13 03:48:02;;;;;;;;;7.60;6.40;;;;;11.60;100.00;98325.19;6228307;28;96281;-70
2023/11/13 03:51:06;;;;;;;;;7.00;7.00;;;;;11.47;100.00;98311.16;6228224;28;96355;-69
2023/11/13 03:54:10;;;;;;;;;7.25;7.25;;;;;11.61;100.00;98318.72;6225035;28;96360;-70
2023/11/13 03:57:14;;;;;;;;;6.00;6.00;;;;;11.58;100.00;98313.00;6211115;28;98868;-70
2023/11/13 04:00:20;;;;;;;;;7.00;6.25;;;;;11.56;100.00;98312.41;6218096;28;97289;-69
2023/11/13 04:03:23;;;;;;;;;7.00;7.00;;;;;11.52;100.00;98314.78;6173942;28;98389;-69
2023/11/13 04:06:26;;;;;;;;;5.00;5.00;;;;;11.53;100.00;98300.22;6188790;28;96285;-69
2023/11/13 04:09:29;;;;;;;;;6.20;5.80;;;;;11.54;100.00;98296.44;6193229;28;96874;-69
2023/11/13 04:12:34;;;;;;;;;7.80;6.80;;;;;11.55;100.00;98302.69;6214995;28;97770;-69
2023/11/13 04:15:37;;;;;;;;;5.40;5.40;;;;;11.58;100.00;98302.22;6209924;28;96634;-69
2023/11/13 04:18:41;;;;;;;;;7.80;7.00;;;;;11.60;100.00;98305.47;6203260;28;96418;-68
2023/11/13 04:21:44;;;;;;;;;5.00;4.50;;;;;11.64;100.00;98306.63;6185076;28;96798;-63
2023/11/13 04:24:47;;;;;;;;;6.60;6.00;;;;;11.63;100.00;98300.41;6178270;28;97607;-64
2023/11/13 04:27:52;;;;;;;;;7.00;6.00;;;;;11.62;100.00;98301.47;6196875;28;98539;-64
2023/11/13 04:30:55;;;;;;;;;7.00;7.00;;;;;11.67;100.00;98301.56;6188438;28;97916;-66
2023/11/13 04:33:59;;;;;;;;;6.60;6.60;;;;;11.70;100.00;98292.16;6177851;28;96956;-64
2023/11/13 04:37:02;;;;;;;;;7.00;6.50;;;;;11.73;100.00;98297.91;6190207;28;96597;-64
2023/11/13 04:40:07;;;;;;;;;7.00;5.60;;;;;11.79;100.00;98306.91;6184509;28;96464;-64
2023/11/13 04:43:12;;;;;;;;;5.00;5.00;;;;;11.71;100.00;98297.31;6189274;28;96267;-63
2023/11/13 04:46:15;;;;;;;;;6.00;6.00;;;;;11.70;100.00;98300.25;6165240;28;96889;-65
2023/11/13 04:49:19;;;;;;;;;7.00;6.00;;;;;11.73;100.00;98310.59;6181880;28;96555;-66
2023/11/13 04:52:22;;;;;;;;;7.00;6.40;;;;;11.73;100.00;98305.19;6184321;28;96900;-64
2023/11/13 04:55:25;;;;;;;;;8.25;8.25;;;;;11.70;100.00;98311.06;6185005;28;97067;-65
2023/11/13 04:58:32;;;;;;;;;7.00;6.75;;;;;11.64;100.00;98301.22;6181045;28;97049;-64
2023/11/13 05:01:36;;;;;;;;;6.40;5.00;;;;;11.66;100.00;98316.13;6175612;28;96851;-63
2023/11/13 05:04:40;;;;;;;;;6.00;6.00;;;;;11.60;100.00;98318.97;6207487;28;97232;-64
2023/11/13 05:07:43;;;;;;;;;7.00;7.00;;;;;11.53;100.00;98311.00;6205149;28;96235;-65
2023/11/13 05:10:46;;;;;;;;;8.40;7.40;;;;;11.37;100.00;98298.31;6204401;28;96417;-64
2023/11/13 05:13:52;;;;;;;;;6.20;6.20;;;;;11.43;100.00;98320.81;6193162;28;96368;-67
2023/11/13 05:16:56;;;;;;;;;5.00;5.00;;;;;11.36;100.00;98322.81;6210820;28;98386;-63
2023/11/13 05:20:00;;;;;;;;;5.50;5.50;;;;;11.35;100.00;98331.97;6192070;28;96865;-63
2023/11/13 05:23:03;;;;;;;;;5.00;5.00;;;;;11.31;100.00;98345.13;6213363;28;96361;-65
2023/11/13 05:26:07;;;;;;;;;7.50;7.00;;;;;11.26;100.00;98348.56;6200498;28;96236;-65
2023/11/13 05:29:11;;;;;;;;;6.40;6.40;;;;;11.27;100.00;98352.06;6210808;28;96720;-69
2023/11/13 05:32:15;;;;;;;;;7.20;6.20;;;;;11.15;100.00;98343.19;6214075;28;97980;-69
2023/11/13 05:35:20;;;;;;;;;6.00;6.00;;;;;11.19;100.00;98347.06;6192397;28;99410;-70
2023/11/13 05:38:23;;;;;;;;;5.40;5.00;;;;;11.15;100.00;98341.31;6201116;28;96447;-69
2023/11/13 05:41:27;;;;;;;;;4.00;4.00;;;;;11.10;100.00;98327.72;6209133;28;96558;-69
2023/11/13 05:44:34;;;;;;;;;5.00;5.00;;;;;11.18;100.00;98345.41;6209326;28;97276;-69
2023/11/13 05:47:37;;;;;;;;;6.00;5.00;;;;;11.08;100.00;98326.31;6224009;28;96607;-68
2023/11/13 05:50:41;;;;;;;;;6.00;6.00;;;;;11.23;100.00;98353.63;6226700;28;96354;-70
2023/11/13 05:53:44;;;;;;;;;4.20;4.00;;;;;11.27;100.00;98355.59;6198850;28;97109;-69
2023/11/13 05:56:48;;;;;;;;;5.00;4.00;;;;;11.24;100.00;98355.22;6227113;28;96259;-68
2023/11/13 05:59:52;;;;;;;;;5.00;4.00;;;;;11.27;100.00;98354.78;6198897;28;96417;-68
2023/11/13 06:02:55;;;;;;;;;5.00;4.00;;;;;11.32;100.00;98359.44;6226844;28;96292;-69
2023/11/13 06:05:59;;;;;;;;;7.40;7.40;;;;;11.39;100.00;98360.13;6205058;28;97191;-69
2023/11/13 06:09:02;;;;;;;;;6.00;5.25;;;;;11.41;100.00;98360.72;6221070;28;96273;-67
2023/11/13 06:12:06;;;;;;;;;4.75;4.00;;;;;11.46;100.00;98363.50;6205270;28;98483;-68
2023/11/13 06:15:13;;;;;;;;;4.00;4.00;;;;;11.50;100.00;98364.66;6212985;28;96308;-68
2023/11/13 06:18:17;;;;;;;;;4.20;4.00;;;;;11.44;100.00;98369.13;6195962;28;96891;-67
2023/11/13 06:21:21;;;;;;;;;4.00;4.00;;;;;11.52;100.00;98370.66;6204134;28;96432;-68
2023/11/13 06:24:25;;;;;;;;;6.00;5.00;;;;;11.35;100.00;98357.09;6212842;28;96726;-67
2023/11/13 06:27:28;;;;;;;;;5.60;5.00;;;;;11.52;100.00;98371.47;6212684;28;96471;-68
2023/11/13 06:30:33;;;;;;;;;5.00;4.40;;;;;11.62;100.00;98374.38;6209925;28;97519;-67
2023/11/13 06:33:37;;;;;;;;;6.00;6.00;;;;;11.69;100.00;98368.81;6209368;28;97200;-68
2023/11/13 06:36:42;;;;;;;;;3.00;2.60;;;;;11.73;100.00;98372.69;6193189;28;96676;-69
2023/11/13 06:39:45;;;;;;;;;3.60;3.00;;;;;11.78;100.00;98372.78;6188306;28;99458;-68
2023/11/13 06:42:50;;;;;;;;;5.00;3.75;;;;;11.84;100.00;98369.13;6205749;28;98729;-69
2023/11/13 06:45:54;;;;;;;;;4.00;4.00;;;;;11.84;100.00;98369.13;6207347;28;96510;-69
2023/11/13 06:48:58;;;;;;;;;4.00;4.00;;;;;11.96;100.00;98374.50;6207332;28;96728;-68
2023/11/13 06:52:03;;;;;;;;;4.00;3.00;;;;;11.92;100.00;98374.16;6206827;28;98378;-68
2023/11/13 06:55:13;;;;;;;;;5.00;5.00;;;;;11.95;100.00;98381.78;6226501;28;96783;-69
2023/11/13 06:58:16;;;;;;;;;7.00;6.00;;;;;12.01;100.00;98383.50;6226309;28;96492;-69
2023/11/13 07:01:21;;;;;;;;;5.00;5.00;;;;;11.90;100.00;98361.94;6206499;28;98518;-68
2023/11/13 07:04:25;;;;;;;;;3.50;3.50;;;;;12.09;100.00;98382.28;6198694;28;96970;-68
2023/11/13 07:07:28;;;;;;;;;4.00;4.00;;;;;12.15;100.00;98374.03;6164849;28;98510;-68
2023/11/13 07:10:34;;;;;;;;;3.60;3.60;;;;;12.32;100.00;98382.13;6199508;28;96359;-68
2023/11/13 07:13:39;;;;;;;;;4.00;4.00;;;;;12.40;100.00;98378.22;6166115;28;96657;-68
2023/11/13 07:16:44;;;;;;;;;4.80;4.80;;;;;12.38;100.00;98359.53;6183534;28;96799;-69
2023/11/13 07:19:47;;;;;;;;;3.00;3.00;;;;;12.51;100.00;98367.31;6183214;28;97305;-69
2023/11/13 07:22:52;;;;;;;;;5.60;5.60;;;;;12.63;100.00;98377.22;6183545;28;96865;-69
2023/11/13 07:25:56;;;;;;;;;5.00;4.80;;;;;12.59;100.00;98360.69;6202551;28;96854;-69
2023/11/13 07:29:00;;;;;;;;;5.00;5.00;;;;;13.05;100.00;98388.41;6205072;28;96312;-68
2023/11/13 07:32:05;;;;;;;;;4.75;4.75;;;;;13.15;100.00;98375.00;6193787;28;96374;-69
2023/11/13 07:35:10;;;;;;;;;3.80;3.80;;;;;13.17;100.00;98362.06;6189758;28;97019;-69
2023/11/13 07:38:14;;;;;;;;;5.00;5.00;;;;;13.08;100.00;98367.06;6187792;28;96727;-68
2023/11/13 07:41:17;;;;;;;;;4.00;4.00;;;;;13.27;100.00;98364.91;6172245;28;96722;-69
2023/11/13 07:44:20;;;;;;;;;3.50;3.25;;;;;13.32;100.00;98378.50;6203482;28;96436;-69
2023/11/13 07:47:27;;;;;;;;;6.00;5.00;;;;;13.28;100.00;98377.38;6202381;28;96424;-69
2023/11/13 07:50:31;;;;;;;;;4.00;4.00;;;;;13.27;100.00;98389.25;6178196;28;96367;-66
2023/11/13 07:53:36;;;;;;;;;6.00;6.00;;;;;13.35;100.00;98394.22;6190904;28;96929;-66
2023/11/13 07:56:39;;;;;;;;;10.00;10.00;;;;;13.55;100.00;98409.91;6191154;28;96427;-66
2023/11/13 07:59:43;;;;;;;;;8.50;7.50;;;;;13.62;100.00;98410.56;6190285;28;96379;-65
2023/11/13 08:02:48;;;;;;;;;7.00;7.00;;;;;13.60;100.00;98404.56;6167144;28;96896;-65
2023/11/13 08:05:52;;;;;;;;;7.40;6.40;;;;;13.62;100.00;98419.50;6215133;28;96343;-66
2023/11/13 08:08:55;;;;;;;;;7.00;7.00;;;;;13.69;100.00;98430.13;6214904;28;96400;-66
2023/11/13 08:11:59;;;;;;;;;7.00;7.00;;;;;13.73;100.00;98434.00;6214949;28;96298;-66
2023/11/13 08:15:02;;;;;;;;;9.00;9.00;;;;;13.83;100.00;98428.66;6215159;28;96351;-66
2023/11/13 08:18:07;;;;;;;;;7.60;7.60;;;;;13.84;100.00;98441.13;6180014;28;96691;-66
2023/11/13 08:21:10;;;;;;;;;7.40;7.00;;;;;13.88;100.00;98434.97;6180073;28;97113;-66
2023/11/13 08:24:13;;;;;;;;;14.60;13.00;;;;;13.90;100.00;98437.44;6213279;28;96701;-66
2023/11/13 08:27:17;;;;;;;;;10.00;9.00;;;;;13.91;100.00;98432.81;6214610;28;96365;-66
2023/11/13 08:30:22;;;;;;;;;9.50;8.75;;;;;13.79;100.00;98435.66;6214440;28;96423;-65
2023/11/13 08:33:28;;;;;;;;;10.00;10.00;;;;;13.72;100.00;98427.75;6215011;28;96271;-66
2023/11/13 08:36:32;;;;;;;;;6.60;6.60;;;;;13.65;100.00;98424.41;6214822;28;96795;-66
2023/11/13 08:39:38;;;;;;;;;8.00;8.00;;;;;13.64;100.00;98421.94;6195360;28;98962;-67
2023/11/13 08:42:41;;;;;;;;;5.75;5.00;;;;;13.66;100.00;98425.22;6214587;28;96360;-65
2023/11/13 08:45:45;;;;;;;;;8.00;7.00;;;;;13.70;100.00;98419.03;6213769;28;96351;-66
2023/11/13 08:49:05;;;;;;;;;10.00;9.00;;;;;13.79;100.00;98412.09;6190007;28;96935;-65
2023/11/13 08:52:09;;;;;;;;;10.00;9.00;;;;;13.91;100.00;98405.72;6194296;28;96367;-66
2023/11/13 08:55:17;;;;;;;;;9.00;9.00;;;;;14.02;100.00;98412.91;6171187;28;96384;-66
2023/11/13 08:58:20;;;;;;;;;7.00;6.00;;;;;14.15;100.00;98415.19;6189892;28;96403;-66
2023/11/13 09:01:25;;;;;;;;;10.00;8.00;;;;;14.19;100.00;98409.00;6172893;28;98412;-66
2023/11/13 09:04:32;;;;;;;;;11.20;9.80;;;;;14.35;100.00;98409.97;6144270;28;96375;-67
2023/11/13 09:07:35;;;;;;;;;8.40;8.00;;;;;14.50;100.00;98407.44;6145510;28;96892;-66
2023/11/13 09:10:44;;;;;;;;;9.40;8.40;;;;;14.79;100.00;98407.09;6144921;28;96555;-66
2023/11/13 09:13:48;;;;;;;;;8.00;7.00;;;;;15.00;100.00;98393.38;6144059;28;98523;-66
2023/11/13 09:16:52;;;;;;;;;11.50;8.50;;;;;15.16;100.00;98394.31;6144805;28;96361;-67
2023/11/13 09:19:57;;;;;;;;;8.00;8.00;;;;;15.49;100.00;98390.41;6162167;28;96320;-68
2023/11/13 09:23:03;;;;;;;;;6.00;6.00;;;;;16.92;100.00;98386.84;6162282;28;96396;-67
2023/11/13 09:26:11;;;;;;;;;10.00;8.60;;;;;18.78;95.33;98392.47;6146751;28;96924;-67
2023/11/13 09:29:14;;;;;;;;;8.00;6.80;;;;;21.77;80.09;98386.16;6130013;28;96736;-68
2023/11/13 09:32:21;;;;;;;;;8.00;7.00;;;;;24.25;63.89;98375.06;6146789;28;96314;-69
2023/11/13 09:35:26;;;;;;;;;6.00;6.00;;;;;25.53;50.05;98375.16;6145944;28;98514;-69
2023/11/13 09:38:31;;;;;;;;;6.00;5.60;;;;;27.56;45.77;98374.19;6163935;28;96541;-69
2023/11/13 09:41:39;;;;;;;;;6.40;6.00;;;;;29.10;38.06;98365.38;6163744;28;96963;-69
2023/11/13 09:44:42;;;;;;;;;8.00;7.60;;;;;30.11;33.84;98371.09;6164758;28;96301;-70
2023/11/13 09:48:00;;;;;;;;;6.00;6.00;;;;;31.36;30.34;98363.31;6145467;28;96727;-67
2023/11/13 09:51:08;;;;;;;;;6.25;4.25;;;;;31.75;28.70;98359.25;6163706;28;97441;-69
2023/11/13 09:54:27;;;;;;;;;5.00;4.40;;;;;31.36;29.72;98358.56;6163884;28;96276;-69
2023/11/13 09:57:31;;;;;;;;;5.00;5.00;;;;;31.28;29.90;98345.66;6145633;28;96774;-70
2023/11/13 10:00:36;;;;;;;;;5.00;4.60;;;;;30.70;30.24;98344.16;6162273;28;96353;-70
2023/11/13 10:03:41;;;;;;;;;5.00;4.00;;;;;29.31;31.83;98350.47;6182322;28;96517;-70
2023/11/13 10:06:50;;;;;;;;;6.00;5.60;;;;;28.14;34.09;98344.38;6170143;28;96643;-68
2023/11/13 10:10:02;;;;;;;;;4.00;3.20;;;;;26.61;37.41;98335.63;6171436;28;98563;-65
2023/11/13 10:13:09;;;;;;;;;5.00;4.60;;;;;26.20;41.56;98339.19;6174169;28;96276;-66
2023/11/13 10:16:18;;;;;;;;;5.40;5.40;;;;;25.30;48.32;98339.56;6173187;28;96837;-67
2023/11/13 10:19:21;;;;;;;;;5.00;5.00;;;;;24.14;51.55;98330.47;6190259;28;96454;-65
2023/11/13 10:22:27;;;;;;;;;6.00;6.00;;;;;23.15;55.59;98330.41;6172950;28;96628;-66
2023/11/13 10:25:45;;;;;;;;;7.00;7.00;;;;;22.46;61.14;98330.78;6173299;28;97199;-66
2023/11/13 10:28:50;;;;;;;;;7.40;6.00;;;;;21.86;66.76;98330.25;6191385;28;96413;-67
2023/11/13 10:31:55;;;;;;;;;8.00;7.00;;;;;21.54;69.00;98319.44;6174176;28;96333;-68
2023/11/13 10:34:58;;;;;;;;;6.80;6.00;;;;;20.92;72.78;98326.41;6190702;28;96148;-68
2023/11/13 10:38:07;;;;;;;;;7.00;6.00;;;;;20.29;75.52;98327.72;6190931;28;96316;-67
2023/11/13 10:41:12;;;;;;;;;9.40;8.40;;;;;19.69;79.76;98323.19;6190401;28;96285;-67
2023/11/13 10:44:27;;;;;;;;;9.00;8.00;;;;;19.01;84.59;98317.94;6171553;28;96605;-67
2023/11/13 10:47:32;;;;;;;;;8.00;7.00;;;;;18.49;87.67;98316.00;6189215;28;97122;-67
2023/11/13 10:50:37;;;;;;;;;8.00;8.00;;;;;18.06;90.12;98326.72;6193148;28;96224;-67
2023/11/13 10:53:42;;;;;;;;;10.20;8.20;;;;;17.58;92.00;98322.06;6169788;28;98832;-68
2023/11/13 10:56:49;;;;;;;;;8.00;8.00;;;;;17.18;94.27;98318.44;6170077;28;96651;-67
2023/11/13 10:59:53;;;;;;;;;9.40;8.40;;;;;16.98;95.69;98312.22;6186744;28;96364;-67
2023/11/13 11:03:04;;;;;;;;;9.00;8.00;;;;;16.86;97.17;98324.22;6167725;28;96266;-67
2023/11/13 11:06:14;;;;;;;;;10.00;7.00;;;;;16.73;97.21;98321.28;6168883;28;96743;-67
2023/11/13 11:09:20;;;;;;;;;7.25;7.00;;;;;16.68;97.65;98321.28;6200467;28;96593;-67
2023/11/13 11:12:27;;;;;;;;;9.00;9.00;;;;;16.53;99.98;98322.06;6209417;28;96561;-66
2023/11/13 11:15:45;;;;;;;;;6.00;6.00;;;;;16.39;100.00;98321.00;6211346;28;97122;-67
2023/11/13 11:18:59;;;;;;;;;8.00;6.50;;;;;16.56;98.06;98316.09;6212614;28;96428;-66
2023/11/13 11:22:10;;;;;;;;;8.40;8.00;;;;;16.47;99.47;98313.09;6216804;28;96315;-68
2023/11/13 11:25:29;;;;;;;;;9.00;8.00;;;;;16.47;97.84;98310.38;6216203;28;96341;-68
2023/11/13 11:28:44;;;;;;;;;9.20;9.00;;;;;16.27;99.39;98310.38;6216254;28;96452;-68
2023/11/13 11:31:48;;;;;;;;;8.80;7.00;;;;;16.18;99.55;98317.47;6216214;28;96340;-68
2023/11/13 11:35:01;;;;;;;;;8.00;8.00;;;;;16.00;100.00;98313.38;6215493;28;97013;-68
2023/11/13 11:38:22;;;;;;;;;7.20;7.20;;;;;15.86;100.00;98306.03;6216015;28;96433;-67
2023/11/13 11:41:41;;;;;;;;;10.00;8.00;;;;;15.81;100.00;98309.56;6198042;28;96312;-68
2023/11/13 11:44:58;;;;;;;;;8.00;7.00;;;;;15.68;100.00;98299.22;6196696;28;98582;-67
2023/11/13 11:48:05;;;;;;;;;10.00;10.00;;;;;15.65;100.00;98302.44;6215736;28;96853;-67
2023/11/13 11:51:15;;;;;;;;;10.00;9.00;;;;;15.59;100.00;98295.34;6215080;28;96508;-68
2023/11/13 11:54:18;;;;;;;;;9.00;7.00;;;;;15.55;100.00;98294.28;6212114;28;96554;-68
2023/11/13 11:57:23;;;;;;;;;9.40;9.40;;;;;15.46;100.00;98291.25;6196756;28;98833;-68
2023/11/13 12:00:27;;;;;;;;;9.40;8.00;;;;;15.46;100.00;98291.25;6215365;28;96327;-68
2023/11/13 12:03:31;;;;;;;;;10.40;9.00;;;;;15.42;100.00;98286.59;6214552;28;96431;-68
2023/11/13 12:06:34;;;;;;;;;8.00;7.00;;;;;15.28;100.00;98290.91;6214929;28;96362;-67
2023/11/13 12:09:42;;;;;;;;;7.00;6.20;;;;;15.29;100.00;98293.38;6200145;28;96346;-67
2023/11/13 12:12:48;;;;;;;;;6.40;5.40;;;;;15.26;100.00;98290.34;6182936;28;98429;-67
2023/11/13 12:15:55;;;;;;;;;7.60;6.60;;;;;15.27;100.00;98294.69;6213891;28;97007;-67
2023/11/13 12:18:58;;;;;;;;;7.50;6.50;;;;;15.18;99.92;98302.56;6213809;28;96289;-67
2023/11/13 12:22:03;;;;;;;;;6.00;6.00;;;;;15.21;99.54;98293.03;6213222;28;96901;-67
2023/11/13 12:25:08;;;;;;;;;7.00;7.00;;;;;15.18;98.61;98291.69;6195307;28;98655;-67
2023/11/13 12:28:13;;;;;;;;;8.00;8.00;;;;;15.15;98.87;98274.03;6197131;28;96662;-68
2023/11/13 12:31:17;;;;;;;;;8.40;8.00;;;;;15.20;98.33;98267.78;6205867;28;96351;-68
2023/11/13 12:34:21;;;;;;;;;7.40;6.60;;;;;15.35;98.16;98272.44;6231070;28;96365;-68
2023/11/13 12:37:26;;;;;;;;;7.00;7.00;;;;;15.54;96.61;98279.88;6213548;28;96345;-69
2023/11/13 12:40:30;;;;;;;;;5.80;5.00;;;;;15.66;96.21;98278.81;6215781;28;96473;-69
2023/11/13 12:43:35;;;;;;;;;7.40;7.40;;;;;15.58;92.71;98286.41;6189590;28;98503;-69
2023/11/13 12:46:42;;;;;;;;;5.00;5.00;;;;;15.25;92.44;98273.22;6196505;28;98354;-70
2023/11/13 12:49:48;;;;;;;;;5.00;5.00;;;;;15.04;91.75;98280.50;6211175;28;98810;-69
2023/11/13 12:52:53;;;;;;;;;6.25;5.75;;;;;14.87;93.45;98281.75;6228164;28;96322;-69
2023/11/13 12:55:57;;;;;;;;;7.20;6.20;;;;;14.79;94.29;98279.56;6231830;28;96454;-70
2023/11/13 12:59:03;;;;;;;;;8.20;8.20;;;;;14.75;93.63;98273.84;6205848;28;96156;-68
2023/11/13 13:02:07;;;;;;;;;9.40;9.00;;;;;15.00;93.20;98271.25;6209850;28;96304;-68
2023/11/13 13:05:12;;;;;;;;;9.00;9.00;;;;;15.08;92.82;98265.31;6206624;28;98328;-67
2023/11/13 13:08:32;;;;;;;;;7.40;7.00;;;;;15.14;89.22;98253.41;6204932;28;96345;-69
2023/11/13 13:11:38;;;;;;;;;7.40;7.00;;;;;15.46;84.88;98261.34;6233018;28;96923;-69
2023/11/13 13:14:42;;;;;;;;;6.00;6.00;;;;;15.44;82.58;98252.66;6232724;28;96300;-68
2023/11/13 13:17:49;;;;;;;;;5.00;5.00;;;;;15.73;83.24;98250.31;6230712;28;96448;-69
2023/11/13 13:20:53;;;;;;;;;6.20;6.20;;;;;15.85;80.13;98250.03;6197912;28;96638;-69
2023/11/13 13:23:56;;;;;;;;;5.00;4.00;;;;;15.79;79.63;98245.66;6229678;28;96169;-69
2023/11/13 13:27:00;;;;;;;;;4.00;4.00;;;;;15.65;80.55;98244.56;6219676;28;96587;-68
2023/11/13 13:30:05;;;;;;;;;4.75;4.00;;;;;15.55;79.03;98246.19;6244413;28;96477;-69
2023/11/13 13:33:10;;;;;;;;;5.00;4.00;;;;;15.51;78.86;98238.84;6226753;28;96686;-69
2023/11/13 13:36:15;;;;;;;;;5.00;5.00;;;;;15.42;80.68;98240.44;6210567;28;97718;-69
2023/11/13 13:39:18;;;;;;;;;7.00;6.50;;;;;15.37;80.51;98229.56;6199108;28;96319;-68
2023/11/13 13:42:22;;;;;;;;;4.40;4.40;;;;;15.19;80.86;98230.88;6191984;28;96695;-68
2023/11/13 13:45:28;;;;;;;;;5.00;5.00;;;;;15.30;81.59;98229.81;6229095;28;96623;-68
2023/11/13 13:48:32;;;;;;;;;7.00;6.00;;;;;15.53;82.01;98232.06;6219514;28;96881;-69
2023/11/13 13:51:37;;;;;;;;;5.00;5.00;;;;;15.70;81.23;98233.69;6213291;28;96352;-69
2023/11/13 13:54:40;;;;;;;;;5.00;5.00;;;;;15.75;80.76;98233.72;6213612;28;96637;-68
2023/11/13 13:57:45;;;;;;;;;5.00;4.20;;;;;15.84;79.40;98224.75;6230473;28;96272;-68
2023/11/13 14:00:52;;;;;;;;;6.00;6.00;;;;;15.76;79.78;98227.19;6230198;28;96352;-68
2023/11/13 14:03:56;;;;;;;;;7.00;7.00;;;;;15.65;81.03;98236.41;6205074;28;96860;-69
2023/11/13 14:07:00;;;;;;;;;9.00;9.00;;;;;15.81;80.51;98219.88;6202948;28;96386;-69
2023/11/13 14:10:03;;;;;;;;;9.80;8.40;;;;;15.93;80.04;98219.59;6185451;28;97085;-68
2023/11/13 14:13:06;;;;;;;;;8.00;7.00;;;;;16.12;79.26;98223.41;6204528;28;96112;-68
2023/11/13 14:16:11;;;;;;;;;5.00;5.00;;;;;16.06;79.55;98223.66;6203687;28;96702;-68
2023/11/13 14:19:15;;;;;;;;;7.40;7.00;;;;;15.83;78.87;98220.38;6204695;28;96474;-69